Time;durP1;ratioP1;P1;durP2;ratioP2;P2;SDS_P1;SDS_P2;PMS_P1;PMS_P2;Temp;Humidity;BMP_temperature;BMP_pressure;BME280_temperature;BME280_humidity;BME280_pressure;Samples;Min_cycle;Max_cycle;Signal;HPM_P1;HPM_P2
2021/01/10 00:02:25;;;;;;;57.08;50.95;;;20.00;42.50;;;;;;5095744;28;20024;-51
2021/01/10 00:04:52;;;;;;;57.53;51.42;;;20.00;42.60;;;;;;5096064;28;20031;-52
2021/01/10 00:07:27;;;;;;;57.10;51.13;;;20.00;42.60;;;;;;5096162;28;20024;-52
2021/01/10 00:09:53;;;;;;;55.67;49.80;;;19.90;42.70;;;;;;5095948;28;20032;-53
2021/01/10 00:12:24;;;;;;;55.42;49.42;;;19.90;42.60;;;;;;5096038;28;20063;-52
2021/01/10 00:14:51;;;;;;;54.10;48.47;;;19.90;42.70;;;;;;5096098;28;20039;-52
2021/01/10 00:17:17;;;;;;;54.33;48.58;;;19.90;42.70;;;;;;5095871;28;20057;-51
2021/01/10 00:19:47;;;;;;;55.30;49.55;;;20.00;42.80;;;;;;5095751;28;20024;-52
2021/01/10 00:22:22;;;;;;;52.10;46.42;;;19.90;42.90;;;;;;5096150;28;20094;-51
2021/01/10 00:24:48;;;;;;;52.75;47.20;;;19.90;42.90;;;;;;5095662;28;20028;-52
2021/01/10 00:27:15;;;;;;;52.45;46.92;;;19.90;42.80;;;;;;5095616;28;20069;-52
2021/01/10 00:29:46;;;;;;;50.47;45.25;;;19.90;42.90;;;;;;5095234;28;20096;-52
2021/01/10 00:32:13;;;;;;;49.50;44.17;;;19.80;42.90;;;;;;5095560;28;20113;-52
2021/01/10 00:34:39;;;;;;;49.38;44.33;;;19.90;42.90;;;;;;5095587;28;20127;-53
2021/01/10 00:37:24;;;;;;;45.92;41.03;;;19.90;43.00;;;;;;5095427;28;20055;-52
2021/01/10 00:39:51;;;;;;;44.50;39.88;;;19.80;43.00;;;;;;5095418;28;20031;-52
2021/01/10 00:42:18;;;;;;;45.17;40.47;;;19.80;43.60;;;;;;5095357;28;20039;-51
2021/01/10 00:44:46;;;;;;;47.22;42.17;;;19.80;43.10;;;;;;5095302;28;20047;-52
2021/01/10 00:47:13;;;;;;;45.45;40.88;;;19.80;43.10;;;;;;5093841;28;20389;-52
2021/01/10 00:49:39;;;;;;;45.50;40.75;;;19.80;43.10;;;;;;5095115;28;20473;-52
2021/01/10 00:52:06;;;;;;;44.10;39.50;;;19.70;43.10;;;;;;5095017;28;20032;-51
2021/01/10 00:54:33;;;;;;;44.92;40.10;;;19.80;43.20;;;;;;5094975;28;20039;-52
2021/01/10 00:57:02;;;;;;;45.58;40.78;;;19.70;43.20;;;;;;5093692;28;20032;-51
2021/01/10 00:59:29;;;;;;;44.53;39.83;;;19.70;43.20;;;;;;5093706;28;20027;-51
2021/01/10 01:01:55;;;;;;;43.60;39.08;;;19.70;43.30;;;;;;5093578;28;20496;-52
2021/01/10 01:04:22;;;;;;;44.15;39.58;;;19.70;43.30;;;;;;5095078;28;20059;-52
2021/01/10 01:06:49;;;;;;;44.15;39.60;;;19.70;43.30;;;;;;5095069;28;20032;-52
2021/01/10 01:09:16;;;;;;;41.75;37.38;;;19.70;43.40;;;;;;5093668;28;20122;-52
2021/01/10 01:11:42;;;;;;;41.47;36.97;;;19.70;43.40;;;;;;5094699;28;20028;-51
2021/01/10 01:14:10;;;;;;;43.60;38.92;;;19.60;43.40;;;;;;5093801;28;20053;-52
2021/01/10 01:16:38;;;;;;;43.03;38.63;;;19.60;43.50;;;;;;5094669;28;20032;-52
2021/01/10 01:19:04;;;;;;;41.10;36.47;;;19.60;43.50;;;;;;5092957;28;20473;-52
2021/01/10 01:21:30;;;;;;;40.45;36.15;;;19.60;43.50;;;;;;5094865;28;20028;-52
2021/01/10 01:23:56;;;;;;;40.83;36.58;;;19.60;43.60;;;;;;5094825;28;20374;-52
2021/01/10 01:26:24;;;;;;;39.28;35.17;;;19.60;43.50;;;;;;5094547;28;20039;-52
2021/01/10 01:28:51;;;;;;;38.58;34.67;;;19.60;43.60;;;;;;5094393;28;20024;-52
2021/01/10 01:31:22;;;;;;;38.78;34.88;;;19.60;43.60;;;;;;5094171;28;20089;-53
2021/01/10 01:33:49;;;;;;;40.67;36.38;;;19.50;43.70;;;;;;5093344;28;20339;-52
2021/01/10 01:36:17;;;;;;;40.00;35.78;;;19.50;43.70;;;;;;5094297;28;20020;-51
2021/01/10 01:38:44;;;;;;;38.78;34.78;;;19.50;43.70;;;;;;5094661;28;20382;-51
2021/01/10 01:41:11;;;;;;;38.47;34.45;;;19.50;43.70;;;;;;5094170;28;20153;-51
2021/01/10 01:43:38;;;;;;;37.42;33.53;;;19.50;43.70;;;;;;5094206;28;20024;-51
2021/01/10 01:46:07;;;;;;;38.42;34.38;;;19.50;43.80;;;;;;5094334;28;20493;-52
2021/01/10 01:48:35;;;;;;;37.92;34.08;;;19.50;44.50;;;;;;5094049;28;20073;-52
2021/01/10 01:51:01;;;;;;;38.25;34.25;;;19.50;43.90;;;;;;5094034;28;20068;-52
2021/01/10 01:53:28;;;;;;;36.13;32.35;;;19.50;43.90;;;;;;5094340;28;20047;-52
2021/01/10 01:55:56;;;;;;;36.35;32.63;;;19.50;43.90;;;;;;5092963;28;20396;-51
2021/01/10 01:58:23;;;;;;;36.83;33.03;;;19.50;44.00;;;;;;5093856;28;20031;-52
2021/01/10 02:00:49;;;;;;;36.17;32.45;;;19.50;44.00;;;;;;5094051;28;20568;-52
2021/01/10 02:03:35;;;;;;;35.72;32.13;;;19.40;44.00;;;;;;5080936;28;20029;-52
2021/01/10 02:06:24;;;;;;;35.25;31.45;;;19.40;44.10;;;;;;5089477;28;20038;-52
2021/01/10 02:08:57;;;;;;;35.67;31.98;;;19.50;44.20;;;;;;5073476;28;20482;-52
2021/01/10 02:11:26;;;;;;;37.50;33.47;;;19.40;44.70;;;;;;5073702;28;20024;-52
2021/01/10 02:13:53;;;;;;;34.45;30.80;;;19.40;44.10;;;;;;5073620;28;20020;-52
2021/01/10 02:16:20;;;;;;;34.35;30.85;;;19.40;44.10;;;;;;5073495;28;20064;-52
2021/01/10 02:18:47;;;;;;;33.92;30.42;;;19.40;44.10;;;;;;5073503;28;20438;-50
2021/01/10 02:21:17;;;;;;;32.10;28.80;;;19.40;44.20;;;;;;5073517;28;20021;-51
2021/01/10 02:23:44;;;;;;;32.45;28.95;;;19.40;44.30;;;;;;5073295;28;20045;-51
2021/01/10 02:26:10;;;;;;;30.38;27.27;;;19.40;44.50;;;;;;5073263;28;20414;-51
2021/01/10 02:28:37;;;;;;;32.63;29.30;;;19.40;44.20;;;;;;5073601;28;20028;-52
2021/01/10 02:31:05;;;;;;;32.15;28.90;;;19.40;44.30;;;;;;5073227;28;20512;-52
2021/01/10 02:33:55;;;;;;;32.38;29.08;;;19.40;44.40;;;;;;5072078;28;20056;-52
2021/01/10 02:36:39;;;;;;;31.20;27.95;;;19.30;44.30;;;;;;5073455;28;20031;-52
2021/01/10 02:39:21;;;;;;;29.90;26.85;;;19.40;44.40;;;;;;5073598;28;20020;-52
2021/01/10 02:41:53;;;;;;;29.73;26.63;;;19.30;44.40;;;;;;5073214;28;20070;-52
2021/01/10 02:44:34;;;;;;;30.35;26.83;;;19.30;44.40;;;;;;5072119;28;20088;-52
2021/01/10 02:47:00;;;;;;;27.60;24.70;;;19.40;44.50;;;;;;5073342;28;20064;-52
2021/01/10 02:49:26;;;;;;;26.55;23.83;;;19.30;44.90;;;;;;5073164;28;20028;-52
2021/01/10 02:51:53;;;;;;;26.73;23.95;;;19.30;44.30;;;;;;5073100;28;20025;-52
2021/01/10 02:54:19;;;;;;;26.15;23.45;;;19.30;44.40;;;;;;5073355;28;20123;-52
2021/01/10 02:56:54;;;;;;;27.70;24.90;;;19.30;44.40;;;;;;5089201;28;20048;-52
2021/01/10 02:59:25;;;;;;;24.95;22.35;;;19.30;44.60;;;;;;5073262;28;20032;-52
2021/01/10 03:01:58;;;;;;;24.42;21.92;;;19.30;44.50;;;;;;5073133;28;20035;-52
2021/01/10 03:04:24;;;;;;;24.65;22.05;;;19.30;44.50;;;;;;5073080;28;20036;-52
2021/01/10 03:06:54;;;;;;;24.55;22.08;;;19.30;44.50;;;;;;5083782;28;20039;-51
2021/01/10 03:09:21;;;;;;;23.70;21.40;;;19.30;44.50;;;;;;5093030;28;20082;-51
2021/01/10 03:11:47;;;;;;;22.73;20.50;;;19.30;44.50;;;;;;5093030;28;20016;-51
2021/01/10 03:14:13;;;;;;;24.90;22.20;;;19.20;44.40;;;;;;5093221;28;20039;-51
2021/01/10 03:16:40;;;;;;;23.05;20.73;;;19.20;44.50;;;;;;5091761;28;20401;-51
2021/01/10 03:19:06;;;;;;;23.13;20.75;;;19.20;44.50;;;;;;5093108;28;20038;-51
2021/01/10 03:21:32;;;;;;;23.25;20.85;;;19.20;44.50;;;;;;5093138;28;20024;-51
2021/01/10 03:23:58;;;;;;;23.38;21.00;;;19.20;44.50;;;;;;5093409;28;20031;-51
2021/01/10 03:26:24;;;;;;;23.75;21.27;;;19.20;44.50;;;;;;5093343;28;20046;-51
2021/01/10 03:28:50;;;;;;;21.92;19.48;;;19.20;44.60;;;;;;5093247;28;20020;-51
2021/01/10 03:31:16;;;;;;;22.40;20.10;;;19.20;44.60;;;;;;5091454;28;20044;-52
2021/01/10 03:33:45;;;;;;;20.92;18.83;;;19.20;44.60;;;;;;5093047;28;20406;-52
2021/01/10 03:36:13;;;;;;;21.50;19.23;;;19.20;44.60;;;;;;5091666;28;20024;-52
2021/01/10 03:38:39;;;;;;;22.02;19.85;;;19.20;44.60;;;;;;5095824;28;20020;-52
2021/01/10 03:41:06;;;;;;;20.88;18.67;;;19.20;44.70;;;;;;5096681;28;20043;-51
2021/01/10 03:43:32;;;;;;;20.42;18.33;;;19.20;44.70;;;;;;5096484;28;20020;-52
2021/01/10 03:45:58;;;;;;;20.75;18.65;;;19.10;44.60;;;;;;5096643;28;20055;-52
2021/01/10 03:48:24;;;;;;;21.45;19.30;;;19.10;44.70;;;;;;5096342;28;20032;-52
2021/01/10 03:50:50;;;;;;;20.02;17.95;;;19.10;45.30;;;;;;5096391;28;20055;-52
2021/01/10 03:53:16;;;;;;;20.55;18.48;;;19.10;44.70;;;;;;5096473;28;20483;-52
2021/01/10 03:55:42;;;;;;;19.98;17.98;;;19.10;44.70;;;;;;5096268;28;20024;-52
2021/01/10 03:58:08;;;;;;;20.00;18.00;;;19.10;44.70;;;;;;5096436;28;20024;-51
2021/01/10 04:00:34;;;;;;;20.08;18.02;;;19.10;44.80;;;;;;5096112;28;20032;-51
2021/01/10 04:03:00;;;;;;;18.98;17.08;;;19.10;44.80;;;;;;5096423;28;20111;-52
2021/01/10 04:05:26;;;;;;;19.60;17.65;;;19.10;44.80;;;;;;5096125;28;20355;-51
2021/01/10 04:07:52;;;;;;;19.42;17.42;;;19.10;44.80;;;;;;5094937;28;20028;-51
2021/01/10 04:10:18;;;;;;;18.55;16.67;;;19.00;44.80;;;;;;5096034;28;20043;-51
2021/01/10 04:12:44;;;;;;;17.60;15.77;;;19.00;44.80;;;;;;5096066;28;20045;-52
2021/01/10 04:15:11;;;;;;;18.15;16.27;;;19.00;44.80;;;;;;5096020;28;20098;-52
2021/01/10 04:17:37;;;;;;;18.38;16.50;;;19.00;44.80;;;;;;5096144;28;20095;-52
2021/01/10 04:20:03;;;;;;;17.70;15.98;;;19.00;44.80;;;;;;5096010;28;20119;-53
2021/01/10 04:22:29;;;;;;;17.63;15.80;;;19.00;44.80;;;;;;5095764;28;20109;-53
2021/01/10 04:24:55;;;;;;;17.85;16.05;;;19.00;44.90;;;;;;5095953;28;20056;-50
2021/01/10 04:27:21;;;;;;;17.83;15.95;;;19.00;44.90;;;;;;5095712;28;20035;-51
2021/01/10 04:29:47;;;;;;;16.17;14.52;;;19.00;44.90;;;;;;5095611;28;20122;-51
2021/01/10 04:32:13;;;;;;;16.85;15.15;;;19.00;44.90;;;;;;5095602;28;20121;-52
2021/01/10 04:34:40;;;;;;;16.10;14.50;;;18.90;44.80;;;;;;5095409;28;20090;-51
2021/01/10 04:37:06;;;;;;;16.10;14.43;;;18.90;44.90;;;;;;5095360;28;20099;-51
2021/01/10 04:39:32;;;;;;;15.25;13.75;;;18.90;44.90;;;;;;5094923;28;20103;-52
2021/01/10 04:41:58;;;;;;;16.48;14.88;;;18.90;44.90;;;;;;5093642;28;20032;-51
2021/01/10 04:44:24;;;;;;;16.55;14.23;;;18.90;44.90;;;;;;5094886;28;20422;-52
2021/01/10 04:46:51;;;;;;;15.77;14.18;;;18.90;44.90;;;;;;5094975;28;20039;-52
2021/01/10 04:49:19;;;;;;;16.48;14.73;;;18.90;44.90;;;;;;5094453;28;20107;-52
2021/01/10 04:51:46;;;;;;;15.57;14.02;;;18.80;45.00;;;;;;5094341;28;20466;-52
2021/01/10 04:54:14;;;;;;;15.60;14.05;;;18.90;45.10;;;;;;5093011;28;20036;-52
2021/01/10 04:56:43;;;;;;;14.70;13.10;;;18.90;45.10;;;;;;5094668;28;20145;-52
2021/01/10 04:59:09;;;;;;;13.90;12.48;;;18.90;45.00;;;;;;5094148;28;20031;-52
2021/01/10 05:01:43;;;;;;;13.85;12.40;;;18.80;45.00;;;;;;5093762;28;20028;-50
2021/01/10 05:04:09;;;;;;;15.07;13.38;;;18.80;45.00;;;;;;5092481;28;20081;-51
2021/01/10 05:06:35;;;;;;;15.02;13.52;;;18.80;45.00;;;;;;5093700;28;20031;-51
2021/01/10 05:09:07;;;;;;;15.38;12.20;;;18.80;45.00;;;;;;5094462;28;20531;-50
2021/01/10 05:11:36;;;;;;;14.68;13.23;;;18.80;45.00;;;;;;5093897;28;20393;-51
2021/01/10 05:14:03;;;;;;;13.48;12.02;;;18.80;45.10;;;;;;5093919;28;20073;-51
2021/01/10 05:16:32;;;;;;;14.48;12.98;;;18.80;45.00;;;;;;5094238;28;20020;-52
2021/01/10 05:18:59;;;;;;;12.73;11.45;;;18.70;45.00;;;;;;5094273;28;20024;-52
2021/01/10 05:21:25;;;;;;;12.07;10.82;;;18.70;45.00;;;;;;5094177;28;20465;-52
2021/01/10 05:23:55;;;;;;;12.73;11.52;;;18.70;45.00;;;;;;5094096;28;20488;-52
2021/01/10 05:26:22;;;;;;;12.37;11.07;;;18.70;45.10;;;;;;5094241;28;20117;-52
2021/01/10 05:28:51;;;;;;;12.27;11.10;;;18.70;45.10;;;;;;5092677;28;20423;-52
2021/01/10 05:31:45;;;;;;;12.90;11.32;;;18.70;45.10;;;;;;5093749;28;20048;-52
2021/01/10 05:34:19;;;;;;;12.23;11.05;;;18.70;45.10;;;;;;5092754;28;20469;-52
2021/01/10 05:36:46;;;;;;;12.25;10.90;;;18.70;45.20;;;;;;5094123;28;20027;-52
2021/01/10 05:39:23;;;;;;;12.27;11.07;;;18.70;45.10;;;;;;5094433;28;20099;-52
2021/01/10 05:41:59;;;;;;;12.10;10.90;;;18.60;45.20;;;;;;5093958;28;20035;-52
2021/01/10 05:44:30;;;;;;;11.57;10.35;;;18.60;45.20;;;;;;5093628;28;20430;-52
2021/01/10 05:47:03;;;;;;;11.98;10.77;;;18.70;45.20;;;;;;5094206;28;20059;-52
2021/01/10 05:49:29;;;;;;;12.80;11.43;;;18.60;45.20;;;;;;5093927;28;20039;-52
2021/01/10 05:52:05;;;;;;;11.77;10.63;;;18.70;45.30;;;;;;5094029;28;20066;-52
2021/01/10 05:54:43;;;;;;;10.93;9.82;;;18.60;45.10;;;;;;5092741;28;20024;-52
2021/01/10 05:57:11;;;;;;;10.98;9.88;;;18.60;45.20;;;;;;5094258;28;20035;-52
2021/01/10 05:59:45;;;;;;;10.95;9.77;;;18.60;45.10;;;;;;5093740;28;20450;-51
2021/01/10 06:02:12;;;;;;;12.30;9.85;;;18.60;45.10;;;;;;5093806;28;20409;-52
2021/01/10 06:04:39;;;;;;;10.85;9.80;;;18.60;45.10;;;;;;5093977;28;20026;-52
2021/01/10 06:07:05;;;;;;;10.98;9.82;;;18.60;45.10;;;;;;5093896;28;20376;-51
2021/01/10 06:09:47;;;;;;;10.05;9.07;;;18.60;45.70;;;;;;5093779;28;20443;-51
2021/01/10 06:12:23;;;;;;;9.75;8.75;;;18.50;45.10;;;;;;5109574;28;20043;-51
2021/01/10 06:15:16;;;;;;;10.88;9.60;;;18.50;45.20;;;;;;5093764;28;20023;-52
2021/01/10 06:17:50;;;;;;;11.80;8.90;;;18.60;45.20;;;;;;5092505;28;20495;-51
2021/01/10 06:20:30;;;;;;;9.68;8.77;;;18.50;45.20;;;;;;5093694;28;20487;-51
2021/01/10 06:22:58;;;;;;;10.60;9.33;;;18.60;45.20;;;;;;5093589;28;20035;-51
2021/01/10 06:25:38;;;;;;;10.43;9.38;;;18.50;45.20;;;;;;5093602;28;20433;-51
2021/01/10 06:28:08;;;;;;;9.60;8.60;;;18.50;45.20;;;;;;5093687;28;20111;-51
2021/01/10 06:30:37;;;;;;;10.25;9.18;;;18.60;45.30;;;;;;5093452;28;20490;-51
2021/01/10 06:33:15;;;;;;;9.70;8.73;;;18.50;45.20;;;;;;5093601;28;20028;-50
2021/01/10 06:35:42;;;;;;;9.32;8.35;;;18.50;45.30;;;;;;5093529;28;20024;-50
2021/01/10 06:38:10;;;;;;;9.85;7.80;;;18.50;45.20;;;;;;5093581;28;20028;-51
2021/01/10 06:40:38;;;;;;;10.38;9.32;;;18.60;45.40;;;;;;5093426;28;20027;-51
2021/01/10 06:43:06;;;;;;;9.52;8.60;;;18.60;45.30;;;;;;5091747;28;20444;-51
2021/01/10 06:45:39;;;;;;;8.65;7.75;;;18.50;45.30;;;;;;5093332;28;20420;-51
2021/01/10 06:48:09;;;;;;;9.27;8.25;;;18.50;45.30;;;;;;5093429;28;20401;-51
2021/01/10 06:50:36;;;;;;;8.55;7.72;;;18.50;45.30;;;;;;5093258;28;20480;-51
2021/01/10 06:53:13;;;;;;;8.10;7.30;;;18.60;45.30;;;;;;5093770;28;20029;-51
2021/01/10 06:55:44;;;;;;;8.75;7.85;;;18.50;45.30;;;;;;5093478;28;20076;-51
2021/01/10 06:58:10;;;;;;;8.07;7.28;;;18.50;45.30;;;;;;5092514;28;20115;-51
2021/01/10 07:00:52;;;;;;;8.73;7.43;;;18.50;45.30;;;;;;5090902;28;20032;-51
2021/01/10 07:03:18;;;;;;;7.88;7.00;;;18.50;45.30;;;;;;5092396;28;20040;-51
2021/01/10 07:06:11;;;;;;;9.20;7.63;;;18.50;45.30;;;;;;5087575;28;20044;-51
2021/01/10 07:08:42;;;;;;;8.30;7.50;;;18.50;45.40;;;;;;5104337;28;20031;-51
2021/01/10 07:11:23;;;;;;;7.70;6.82;;;18.50;45.40;;;;;;5092226;28;20062;-56
2021/01/10 07:14:12;;;;;;;8.32;7.45;;;18.50;45.40;;;;;;5095577;28;20028;-56
2021/01/10 07:16:44;;;;;;;7.93;7.13;;;18.50;45.40;;;;;;5096443;28;20036;-56
2021/01/10 07:19:14;;;;;;;8.15;7.35;;;18.50;45.40;;;;;;5096357;28;20020;-57
2021/01/10 07:21:44;;;;;;;8.48;6.53;;;18.50;45.30;;;;;;5095791;28;20031;-56
2021/01/10 07:24:13;;;;;;;6.53;5.93;;;18.50;45.30;;;;;;5095701;28;20496;-56
2021/01/10 07:27:02;;;;;;;6.90;5.85;;;18.50;45.10;;;;;;5096005;28;20028;-57
2021/01/10 07:29:41;;;;;;;7.32;5.85;;;18.50;45.00;;;;;;5075543;28;20470;-56
2021/01/10 07:32:13;;;;;;;6.57;5.88;;;18.50;45.00;;;;;;5078938;28;20485;-56
2021/01/10 07:34:45;;;;;;;5.90;5.30;;;18.40;44.90;;;;;;5096045;28;20035;-57
2021/01/10 07:37:29;;;;;;;6.13;5.53;;;18.40;44.80;;;;;;5095645;28;20066;-57
2021/01/10 07:40:05;;;;;;;6.13;5.32;;;18.40;44.90;;;;;;5095842;28;20055;-56
2021/01/10 07:42:38;;;;;;;5.32;4.82;;;18.40;44.90;;;;;;5089137;28;20028;-57
2021/01/10 07:45:17;;;;;;;6.45;5.85;;;18.40;44.90;;;;;;5085594;28;20170;-57
2021/01/10 07:47:51;;;;;;;10.45;9.13;;;18.40;44.90;;;;;;5094748;28;20414;-57
2021/01/10 07:50:17;;;;;;;21.38;18.23;;;18.40;44.90;;;;;;5095647;28;20036;-57
2021/01/10 07:52:46;;;;;;;22.42;20.05;;;18.40;44.90;;;;;;5095710;28;20358;-57
2021/01/10 07:55:18;;;;;;;14.52;12.93;;;18.40;45.00;;;;;;5095106;28;20099;-58
2021/01/10 07:58:04;;;;;;;17.20;15.40;;;18.40;45.00;;;;;;5095356;28;20024;-57
2021/01/10 08:00:34;;;;;;;17.33;15.57;;;18.30;44.90;;;;;;5091357;28;20047;-57
2021/01/10 08:03:25;;;;;;;16.98;14.50;;;18.40;45.00;;;;;;5094862;28;20601;-57
2021/01/10 08:06:05;;;;;;;16.10;14.40;;;18.30;45.00;;;;;;5095163;28;20035;-56
2021/01/10 08:08:46;;;;;;;16.55;14.88;;;18.40;45.10;;;;;;5093119;28;20031;-57
2021/01/10 08:11:28;;;;;;;21.30;17.45;;;18.40;45.20;;;;;;5092660;28;20031;-58
2021/01/10 08:13:54;;;;;;;24.10;21.63;;;18.30;45.20;;;;;;5092339;28;20130;-56
2021/01/10 08:16:25;;;;;;;24.52;21.92;;;18.40;45.40;;;;;;5095377;28;20459;-55
2021/01/10 08:18:52;;;;;;;51.25;45.75;;;18.40;45.60;;;;;;5093676;28;20028;-57
2021/01/10 08:21:18;;;;;;;140.85;120.65;;;18.40;45.60;;;;;;5094633;28;20020;-57
2021/01/10 08:23:54;;;;;;;150.95;134.48;;;18.40;45.60;;;;;;5095099;28;20036;-57
2021/01/10 08:26:20;;;;;;;187.90;167.88;;;18.40;45.70;;;;;;5095403;28;20035;-57
2021/01/10 08:28:53;;;;;;;175.32;156.60;;;18.40;45.70;;;;;;5095566;28;20024;-57
2021/01/10 08:31:21;;;;;;;167.43;149.52;;;18.50;45.70;;;;;;5080347;28;20049;-56
2021/01/10 08:33:57;;;;;;;170.60;152.02;;;18.50;45.80;;;;;;5075342;28;20108;-57
2021/01/10 08:36:23;;;;;;;157.85;140.70;;;18.50;45.70;;;;;;5086822;28;20416;-57
2021/01/10 08:38:57;;;;;;;207.88;185.90;;;18.50;45.70;;;;;;5095051;28;20036;-56
2021/01/10 08:41:28;;;;;;;176.38;157.93;;;18.50;45.90;;;;;;5095002;28;20043;-55
2021/01/10 08:44:16;;;;;;;192.05;171.77;;;18.50;45.90;;;;;;5094454;28;20161;-57
2021/01/10 08:46:44;;;;;;;180.38;161.20;;;18.60;46.60;;;;;;5094731;28;20035;-55
2021/01/10 08:49:14;;;;;;;170.05;151.93;;;18.60;46.00;;;;;;5094330;28;20020;-56
2021/01/10 08:51:42;;;;;;;167.35;149.52;;;18.70;46.10;;;;;;5094712;28;20115;-55
2021/01/10 08:54:18;;;;;;;158.77;141.85;;;18.70;46.10;;;;;;5094629;28;20547;-53
2021/01/10 08:56:49;;;;;;;163.63;146.25;;;18.70;46.20;;;;;;5095474;28;20482;-55
2021/01/10 08:59:15;;;;;;;158.70;141.95;;;18.80;46.20;;;;;;5093493;28;20020;-54
2021/01/10 09:01:41;;;;;;;154.20;137.93;;;18.80;46.10;;;;;;5093301;28;20028;-54
2021/01/10 09:04:13;;;;;;;150.80;134.65;;;18.80;46.10;;;;;;5076777;28;20024;-55
2021/01/10 09:07:05;;;;;;;142.40;127.03;;;18.80;46.20;;;;;;5094896;28;20036;-54
2021/01/10 09:09:31;;;;;;;141.07;126.05;;;18.80;46.20;;;;;;5095053;28;20085;-55
2021/01/10 09:12:14;;;;;;;137.80;123.07;;;18.90;46.10;;;;;;5093807;28;20031;-55
2021/01/10 09:15:08;;;;;;;133.40;119.43;;;18.90;46.30;;;;;;5091985;28;20035;-54
2021/01/10 09:17:45;;;;;;;130.90;116.95;;;18.90;46.30;;;;;;5093477;28;20056;-56
2021/01/10 09:20:18;;;;;;;128.93;114.93;;;19.00;46.30;;;;;;5091641;28;20032;-49
2021/01/10 09:22:45;;;;;;;123.32;110.10;;;19.00;46.30;;;;;;5092127;28;20032;-50
2021/01/10 09:25:16;;;;;;;125.63;112.28;;;19.00;46.30;;;;;;5093525;28;20074;-51
2021/01/10 09:28:04;;;;;;;;;;;19.10;46.30;;;;;;5099088;28;20028;-51
2021/01/10 09:30:31;;;;;;;117.00;104.82;;;19.10;46.20;;;;;;5086364;28;20023;-51
2021/01/10 09:32:58;;;;;;;131.75;117.93;;;19.20;45.80;;;;;;5093755;28;20016;-51
2021/01/10 09:35:24;;;;;;;130.52;116.55;;;19.20;45.80;;;;;;5093351;28;20413;-52
2021/01/10 09:37:50;;;;;;;131.43;117.40;;;19.20;45.80;;;;;;5091713;28;20032;-52
2021/01/10 09:40:17;;;;;;;118.85;106.72;;;19.20;45.70;;;;;;5093823;28;20024;-57
2021/01/10 09:42:48;;;;;;;123.35;110.70;;;19.20;45.70;;;;;;5075106;28;20050;-55
2021/01/10 09:45:14;;;;;;;;;;;19.20;45.70;;;;;;5091942;28;20055;-55
2021/01/10 09:47:42;;;;;;;124.63;111.13;;;19.30;45.90;;;;;;5093634;28;19908;-56
2021/01/10 09:50:15;;;;;;;134.30;120.00;;;19.30;45.70;;;;;;5094099;28;20361;-57
2021/01/10 09:52:53;;;;;;;132.80;118.50;;;19.30;45.60;;;;;;5093758;28;20016;-54
2021/01/10 09:55:27;;;;;;;135.43;121.10;;;19.40;45.60;;;;;;5092617;28;20024;-54
2021/01/10 09:57:55;;;;;;;136.80;122.25;;;19.40;45.60;;;;;;5091856;28;20028;-55
2021/01/10 10:00:22;;;;;;;126.82;112.93;;;19.40;45.50;;;;;;5082653;28;20439;-55
2021/01/10 10:02:48;;;;;;;124.25;110.90;;;19.40;45.90;;;;;;5093386;28;20032;-54
2021/01/10 10:05:22;;;;;;;118.43;105.70;;;19.50;45.30;;;;;;5092102;28;20036;-54
2021/01/10 10:07:49;;;;;;;121.60;108.25;;;19.50;45.10;;;;;;5092942;28;20031;-48
2021/01/10 10:10:24;;;;;;;123.10;109.75;;;19.50;45.10;;;;;;5091128;28;20374;-49
2021/01/10 10:13:10;;;;;;;124.13;110.53;;;19.40;45.10;;;;;;5092823;28;20020;-49
2021/01/10 10:15:42;;;;;;;116.82;102.22;;;19.50;45.20;;;;;;5093313;28;20028;-50
2021/01/10 10:18:16;;;;;;;110.90;98.75;;;19.50;44.90;;;;;;5091080;28;20026;-50
2021/01/10 10:20:42;;;;;;;108.72;96.90;;;19.40;44.80;;;;;;5093655;28;20106;-49
2021/01/10 10:23:10;;;;;;;110.18;94.60;;;19.50;44.70;;;;;;5093031;28;20024;-49
2021/01/10 10:25:37;;;;;;;88.95;79.32;;;19.40;44.50;;;;;;5092031;28;20032;-49
2021/01/10 10:28:04;;;;;;;82.30;73.50;;;19.40;44.40;;;;;;5091144;28;20031;-50
2021/01/10 10:30:32;;;;;;;78.50;66.53;;;19.40;44.20;;;;;;5092777;28;20148;-50
2021/01/10 10:32:58;;;;;;;77.95;64.18;;;19.30;44.40;;;;;;5092864;28;20032;-55
2021/01/10 10:35:24;;;;;;;63.72;56.83;;;19.30;45.00;;;;;;5092982;28;20028;-53
2021/01/10 10:37:51;;;;;;;54.80;48.78;;;19.30;44.50;;;;;;5092697;28;20031;-54
2021/01/10 10:40:18;;;;;;;55.22;48.30;;;19.20;44.70;;;;;;5084763;28;20024;-55
2021/01/10 10:42:44;;;;;;;49.72;44.33;;;19.20;44.80;;;;;;5073373;28;20035;-56
2021/01/10 10:45:11;;;;;;;45.17;40.38;;;19.10;44.80;;;;;;5086302;28;20189;-53
2021/01/10 10:47:37;;;;;;;44.28;39.50;;;19.10;44.70;;;;;;5089638;28;20034;-51
2021/01/10 10:50:04;;;;;;;34.45;30.75;;;19.10;44.70;;;;;;5094168;28;20385;-52
2021/01/10 10:52:30;;;;;;;22.17;19.80;;;19.10;44.50;;;;;;5094363;28;20600;-52
2021/01/10 10:54:56;;;;;;;20.00;16.50;;;19.10;44.30;;;;;;5095262;28;20095;-52
2021/01/10 10:57:22;;;;;;;20.00;16.15;;;19.00;44.10;;;;;;5095102;28;20392;-52
2021/01/10 10:59:49;;;;;;;34.90;27.90;;;19.00;44.00;;;;;;5087551;28;20028;-51
2021/01/10 11:02:15;;;;;;;56.10;45.00;;;19.00;43.90;;;;;;5092608;28;20454;-52
2021/01/10 11:04:45;;;;;;;56.40;48.47;;;19.00;44.00;;;;;;5086571;28;20036;-52
2021/01/10 11:07:12;;;;;;;63.45;52.53;;;19.00;44.10;;;;;;5089832;28;20040;-53
2021/01/10 11:09:38;;;;;;;59.85;51.13;;;18.90;44.10;;;;;;5093222;28;20093;-51
2021/01/10 11:12:07;;;;;;;62.03;50.28;;;19.00;44.20;;;;;;5092022;28;20367;-52
2021/01/10 11:14:33;;;;;;;50.03;43.40;;;18.90;44.20;;;;;;5075784;28;20123;-52
2021/01/10 11:16:59;;;;;;;51.10;42.25;;;18.90;44.20;;;;;;5076055;28;20028;-53
2021/01/10 11:19:25;;;;;;;48.33;39.53;;;18.90;44.20;;;;;;5094321;28;20024;-53
2021/01/10 11:21:51;;;;;;;47.65;38.03;;;18.90;44.10;;;;;;5076637;28;20470;-52
2021/01/10 11:24:17;;;;;;;61.00;52.40;;;18.90;44.10;;;;;;5087244;28;20039;-52
2021/01/10 11:26:45;;;;;;;61.40;53.25;;;18.90;44.00;;;;;;5093284;28;20088;-53
2021/01/10 11:29:12;;;;;;;63.15;52.47;;;18.90;44.10;;;;;;5089847;28;20542;-56
2021/01/10 11:31:39;;;;;;;64.35;54.72;;;18.80;44.00;;;;;;5079331;28;20063;-54
2021/01/10 11:34:13;;;;;;;61.78;52.35;;;18.80;44.10;;;;;;5079595;28;20028;-54
2021/01/10 11:36:45;;;;;;;57.58;50.53;;;18.80;44.20;;;;;;5079592;28;20025;-54
2021/01/10 11:39:12;;;;;;;53.15;47.30;;;18.80;44.20;;;;;;5084401;28;20036;-52
2021/01/10 11:41:42;;;;;;;54.25;47.50;;;18.80;44.30;;;;;;5085861;28;20043;-54
2021/01/10 11:44:08;;;;;;;53.65;46.20;;;18.80;44.40;;;;;;5124702;27;20054;-58
2021/01/10 11:46:34;;;;;;;51.63;45.63;;;18.80;44.40;;;;;;5095124;28;20036;-56
2021/01/10 11:49:00;;;;;;;50.75;43.17;;;18.80;44.50;;;;;;5086962;28;20381;-56
2021/01/10 11:51:26;;;;;;;50.72;43.80;;;18.80;44.60;;;;;;5075915;28;20390;-56
2021/01/10 11:53:52;;;;;;;48.65;42.50;;;18.80;44.70;;;;;;5090892;28;20488;-52
2021/01/10 11:56:18;;;;;;;49.13;41.15;;;18.70;44.70;;;;;;5078694;28;20067;-56
2021/01/10 11:58:45;;;;;;;58.28;52.00;;;18.70;44.70;;;;;;5084984;28;20056;-52
2021/01/10 12:01:11;;;;;;;59.50;51.13;;;18.70;44.90;;;;;;5090880;28;20035;-54
2021/01/10 12:03:37;;;;;;;55.67;49.63;;;18.70;45.00;;;;;;5093533;28;20032;-51
2021/01/10 12:06:04;;;;;;;53.45;47.30;;;18.70;45.10;;;;;;5093390;28;20053;-52
2021/01/10 12:08:30;;;;;;;59.78;49.58;;;18.70;45.30;;;;;;5087459;28;20065;-52
2021/01/10 12:10:56;;;;;;;52.55;45.63;;;18.70;45.40;;;;;;5091314;28;20103;-53
2021/01/10 12:13:22;;;;;;;48.17;42.25;;;18.70;45.60;;;;;;5080087;28;20470;-54
2021/01/10 12:15:49;;;;;;;45.83;39.92;;;18.70;45.70;;;;;;5077461;28;20438;-52
2021/01/10 12:18:15;;;;;;;47.28;41.70;;;18.70;45.80;;;;;;5095056;28;20016;-52
2021/01/10 12:20:42;;;;;;;49.80;43.17;;;18.70;45.70;;;;;;5060290;28;20032;-53
2021/01/10 12:23:09;;;;;;;56.10;49.88;;;18.70;45.60;;;;;;5094315;28;20020;-54
2021/01/10 12:25:35;;;;;;;64.18;54.67;;;18.70;45.60;;;;;;5087795;28;20043;-53
2021/01/10 12:28:01;;;;;;;62.75;55.88;;;18.70;45.70;;;;;;5094109;28;20408;-54
2021/01/10 12:30:28;;;;;;;64.35;56.10;;;18.70;45.80;;;;;;5093239;28;20044;-52
2021/01/10 12:32:54;;;;;;;66.35;56.92;;;18.80;45.90;;;;;;5092758;28;20501;-54
2021/01/10 12:35:21;;;;;;;60.75;53.85;;;18.80;46.60;;;;;;5093078;28;20031;-52
2021/01/10 12:37:48;;;;;;;61.78;53.67;;;18.80;46.10;;;;;;5093217;28;20073;-52
2021/01/10 12:40:16;;;;;;;60.42;51.15;;;18.80;46.20;;;;;;5094079;28;20051;-56
2021/01/10 12:42:42;;;;;;;51.72;45.20;;;18.90;46.40;;;;;;5094175;28;20024;-57